^^
Your Local Weather - Clay, NY Station Historical Data
Daily Summary for August 23, 2017 Units:  English    Metric   Both
« Previous Day
Next Day »
Daily Weekly Monthly Yearly Custom
  High: Low: Average:
Temperature: 74.5 °F 59.4 °F 66.1 °F
Dew Point: 64.0 °F 51.0 °F 56.1 °F
Humidity: 90% 46% 72%
Wind Speed: 6.0mph 0.0mph 1.6mph
Wind Gust: 11.0mph - -
Wind- - WSW
Pressure: 29.85 in 29.66 in -
Precipitation: 0.01 in    
Historical Graphs
 
 
Tabular Data for August 23, 2017
Time Temperature Dew Point Pressure Wind Wind Speed Wind Gust Humidity Rainfall Rate (Hourly) solar
00:04 66.9 °F 63.6 °F 29.66 in SW 2.0 mph 2.0 mph 89% 0.00 in 0 W/m2
00:10 66.9 °F 63.6 °F 29.67 in SW 1.0 mph 1.0 mph 89% 0.00 in 0 W/m2
00:16 67.0 °F 63.6 °F 29.67 in SW 1.0 mph 1.0 mph 89% 0.00 in 0 W/m2
00:22 67.0 °F 63.6 °F 29.67 in SW 1.0 mph 1.0 mph 89% 0.00 in 0 W/m2
00:28 66.9 °F 63.9 °F 29.68 in WNW 1.0 mph 2.0 mph 90% 0.00 in 0 W/m2
00:34 66.9 °F 63.9 °F 29.68 in WNW 1.0 mph 2.0 mph 90% 0.00 in 0 W/m2
00:40 67.0 °F 64.0 °F 29.69 in WSW 1.0 mph 1.0 mph 90% 0.00 in 0 W/m2
00:46 67.0 °F 64.0 °F 29.69 in NW 1.0 mph 4.0 mph 90% 0.00 in 0 W/m2
00:52 66.9 °F 63.6 °F 29.69 in WSW 1.0 mph 3.0 mph 89% 0.00 in 0 W/m2
00:58 66.9 °F 63.6 °F 29.69 in Calm   3.0 mph 89% 0.00 in 0 W/m2
01:04 66.9 °F 63.6 °F 29.69 in Calm     89% 0.00 in 0 W/m2
01:10 66.8 °F 63.5 °F 29.69 in Calm     89% 0.00 in 0 W/m2
01:16 66.7 °F 63.4 °F 29.70 in WSW 1.0 mph 2.0 mph 89% 0.00 in 0 W/m2
01:22 66.6 °F 63.3 °F 29.70 in WNW 1.0 mph 2.0 mph 89% 0.00 in 0 W/m2
01:28 66.4 °F 62.1 °F 29.71 in SW 2.0 mph 8.0 mph 86% 0.00 in 0 W/m2
01:34 66.2 °F 61.2 °F 29.70 in WSW 1.0 mph 4.0 mph 84% 0.00 in 0 W/m2
01:40 66.0 °F 60.3 °F 29.71 in West 1.0 mph 3.0 mph 82% 0.00 in 0 W/m2
01:46 66.0 °F 59.3 °F 29.71 in WNW 2.0 mph 3.0 mph 79% 0.00 in 0 W/m2
01:52 65.8 °F 58.7 °F 29.71 in WNW 1.0 mph 2.0 mph 78% 0.00 in 0 W/m2
01:58 65.5 °F 58.5 °F 29.71 in Calm   2.0 mph 78% 0.00 in 0 W/m2
02:04 65.2 °F 58.2 °F 29.72 in WNW 1.0 mph 1.0 mph 78% 0.00 in 0 W/m2
02:10 65.0 °F 58.0 °F 29.72 in SW 1.0 mph 4.0 mph 78% 0.00 in 0 W/m2
02:16 64.6 °F 57.6 °F 29.72 in NW 1.0 mph 4.0 mph 78% 0.00 in 0 W/m2
02:22 64.3 °F 57.3 °F 29.73 in WNW 1.0 mph 1.0 mph 78% 0.00 in 0 W/m2
02:28 64.0 °F 57.4 °F 29.73 in WNW 1.0 mph 1.0 mph 79% 0.00 in 0 W/m2
02:34 63.8 °F 57.5 °F 29.74 in WNW 1.0 mph 1.0 mph 80% 0.00 in 0 W/m2
02:40 63.5 °F 57.6 °F 29.74 in WSW 1.0 mph 1.0 mph 81% 0.00 in 0 W/m2
02:46 63.3 °F 57.4 °F 29.74 in West 1.0 mph 1.0 mph 81% 0.00 in 0 W/m2
02:52 63.0 °F 57.1 °F 29.74 in WSW 1.0 mph 1.0 mph 81% 0.00 in 0 W/m2
02:58 62.8 °F 56.9 °F 29.74 in WSW 1.0 mph 1.0 mph 81% 0.00 in 0 W/m2
03:04 62.5 °F 56.6 °F 29.74 in WSW 1.0 mph 1.0 mph 81% 0.00 in 0 W/m2
03:10 62.3 °F 56.7 °F 29.74 in Calm   1.0 mph 82% 0.00 in 0 W/m2
03:16 62.0 °F 56.8 °F 29.74 in WSW 1.0 mph 1.0 mph 83% 0.00 in 0 W/m2
03:28 61.5 °F 56.6 °F 29.74 in WSW 1.0 mph 4.0 mph 84% 0.00 in 0 W/m2
03:36 61.3 °F 56.8 °F 29.74 in SW 2.0 mph 3.0 mph 85% 0.00 in 0 W/m2
03:42 61.2 °F 56.7 °F 29.74 in SW 2.0 mph 2.0 mph 85% 0.00 in 0 W/m2
03:48 61.0 °F 56.5 °F 29.74 in SW 1.0 mph 3.0 mph 85% 0.00 in 0 W/m2
03:54 60.7 °F 56.5 °F 29.74 in SW 1.0 mph 1.0 mph 86% 0.00 in 0 W/m2
04:00 60.5 °F 56.3 °F 29.74 in WSW 1.0 mph 6.0 mph 86% 0.00 in 0 W/m2
04:06 60.5 °F 56.3 °F 29.74 in SW 2.0 mph 6.0 mph 86% 0.00 in 0 W/m2
04:12 60.2 °F 56.0 °F 29.74 in Calm   1.0 mph 86% 0.00 in 0 W/m2
04:18 60.1 °F 55.9 °F 29.74 in SW 1.0 mph 3.0 mph 86% 0.00 in 0 W/m2
04:24 60.2 °F 56.0 °F 29.74 in SW 2.0 mph 3.0 mph 86% 0.00 in 0 W/m2
04:30 60.1 °F 55.9 °F 29.74 in SW 2.0 mph 5.0 mph 86% 0.00 in 0 W/m2
04:36 60.1 °F 55.9 °F 29.74 in SW 1.0 mph 5.0 mph 86% 0.00 in 0 W/m2
04:42 60.1 °F 55.9 °F 29.74 in SSW 1.0 mph 3.0 mph 86% 0.00 in 0 W/m2
04:48 60.2 °F 55.7 °F 29.75 in WSW 1.0 mph 3.0 mph 85% 0.00 in 0 W/m2
04:54 60.2 °F 55.7 °F 29.75 in WSW 1.0 mph 1.0 mph 85% 0.00 in 0 W/m2
05:00 60.2 °F 55.7 °F 29.75 in WSW 2.0 mph 5.0 mph 85% 0.00 in 0 W/m2
05:06 60.2 °F 55.3 °F 29.75 in SW 2.0 mph 5.0 mph 84% 0.00 in 0 W/m2
05:12 60.2 °F 55.3 °F 29.75 in SW 2.0 mph 2.0 mph 84% 0.00 in 0 W/m2
05:18 60.1 °F 55.2 °F 29.75 in WSW 2.0 mph 4.0 mph 84% 0.00 in 0 W/m2
05:24 60.0 °F 55.2 °F 29.75 in WSW 3.0 mph 5.0 mph 84% 0.00 in 0 W/m2
05:30 60.0 °F 55.2 °F 29.75 in West 3.0 mph 3.0 mph 84% 0.00 in 0 W/m2
05:36 59.9 °F 55.1 °F 29.75 in SW 3.0 mph 4.0 mph 84% 0.00 in 0 W/m2
05:42 60.0 °F 55.2 °F 29.76 in SW 3.0 mph 3.0 mph 84% 0.00 in 0 W/m2
05:48 60.0 °F 54.8 °F 29.76 in WSW 2.0 mph 7.0 mph 83% 0.00 in 0 W/m2
05:54 59.9 °F 54.7 °F 29.76 in WSW 2.0 mph 4.0 mph 83% 0.00 in 0 W/m2
06:02 59.8 °F 54.6 °F 29.76 in SW 1.0 mph 2.0 mph 83% 0.00 in 0 W/m2
06:08 59.8 °F 54.6 °F 29.77 in WSW 2.0 mph 3.0 mph 83% 0.00 in 0 W/m2
06:14 59.8 °F 54.6 °F 29.77 in SW 2.0 mph 3.0 mph 83% 0.00 in 0 W/m2
06:20 59.7 °F 54.5 °F 29.76 in West 1.0 mph 1.0 mph 83% 0.00 in 0 W/m2
06:26 59.7 °F 54.5 °F 29.77 in WSW 1.0 mph 4.0 mph 83% 0.00 in 7 W/m2
06:32 59.6 °F 54.4 °F 29.77 in SW 1.0 mph 1.0 mph 83% 0.00 in 11 W/m2
06:39 59.5 °F 54.3 °F 29.77 in SW 2.0 mph 3.0 mph 83% 0.00 in 12 W/m2
06:44 59.4 °F 54.2 °F 29.77 in WSW 1.0 mph 3.0 mph 83% 0.00 in 14 W/m2
06:50 59.4 °F 54.2 °F 29.77 in WSW 2.0 mph 2.0 mph 83% 0.00 in 19 W/m2
06:56 59.5 °F 54.3 °F 29.77 in WSW 2.0 mph 2.0 mph 83% 0.00 in 25 W/m2
07:02 59.5 °F 54.7 °F 29.77 in WSW 1.0 mph 1.0 mph 84% 0.00 in 37 W/m2
07:08 59.6 °F 54.8 °F 29.77 in WSW 2.0 mph 2.0 mph 84% 0.00 in 49 W/m2
07:14 59.9 °F 54.7 °F 29.77 in SW 3.0 mph 5.0 mph 83% 0.00 in 120 W/m2
07:20 60.3 °F 55.1 °F 29.77 in WSW 3.0 mph 3.0 mph 83% 0.00 in 114 W/m2
07:26 60.6 °F 55.1 °F 29.77 in SW 2.0 mph 3.0 mph 82% 0.00 in 144 W/m2
07:32 60.8 °F 55.3 °F 29.77 in SW 1.0 mph 4.0 mph 82% 0.00 in 86 W/m2
07:38 61.1 °F 55.2 °F 29.77 in West 2.0 mph 4.0 mph 81% 0.00 in 155 W/m2
07:44 61.6 °F 55.7 °F 29.77 in WSW 3.0 mph 3.0 mph 81% 0.00 in 204 W/m2
07:50 61.8 °F 55.6 °F 29.78 in North 3.0 mph 3.0 mph 80% 0.00 in 221 W/m2
07:56 62.2 °F 56.0 °F 29.78 in SW 2.0 mph 3.0 mph 80% 0.00 in 186 W/m2
08:02 62.4 °F 55.8 °F 29.78 in WSW 2.0 mph 2.0 mph 79% 0.00 in 100 W/m2
08:08 62.6 °F 56.0 °F 29.78 in SW 1.0 mph 4.0 mph 79% 0.00 in 269 W/m2
08:14 62.7 °F 55.7 °F 29.78 in WSW 2.0 mph 2.0 mph 78% 0.00 in 67 W/m2
08:20 62.9 °F 55.9 °F 29.78 in WSW 3.0 mph 3.0 mph 78% 0.00 in 109 W/m2
08:26 63.3 °F 56.7 °F 29.78 in NW 2.0 mph 4.0 mph 79% 0.00 in 116 W/m2
08:32 63.6 °F 56.6 °F 29.78 in WSW 1.0 mph 2.0 mph 78% 0.00 in 77 W/m2
08:38 64.0 °F 57.0 °F 29.78 in WSW 1.0 mph 3.0 mph 78% 0.00 in 62 W/m2
08:44 64.2 °F 57.2 °F 29.78 in SW 2.0 mph 5.0 mph 78% 0.00 in 113 W/m2
08:50 64.5 °F 57.1 °F 29.78 in WSW 1.0 mph 5.0 mph 77% 0.00 in 100 W/m2
08:56 64.8 °F 57.1 °F 29.78 in SW 2.0 mph 5.0 mph 76% 0.00 in 116 W/m2
09:02 65.2 °F 57.1 °F 29.78 in SSW 2.0 mph 4.0 mph 75% 0.00 in 98 W/m2
09:08 65.5 °F 57.7 °F 29.79 in WSW 2.0 mph 4.0 mph 76% 0.00 in 120 W/m2
09:14 65.8 °F 56.9 °F 29.79 in WSW 1.0 mph 5.0 mph 73% 0.00 in 74 W/m2
09:20 65.9 °F 57.0 °F 29.79 in WSW 2.0 mph 3.0 mph 73% 0.00 in 127 W/m2
09:26 66.0 °F 56.7 °F 29.79 in NW 2.0 mph 3.0 mph 72% 0.00 in 160 W/m2
09:32 66.5 °F 58.0 °F 29.79 in SE 2.0 mph 3.0 mph 74% 0.00 in 538 W/m2
09:38 67.2 °F 57.9 °F 29.80 in North 2.0 mph 3.0 mph 72% 0.00 in 564 W/m2
09:44 67.6 °F 57.9 °F 29.80 in SW 2.0 mph 7.0 mph 71% 0.00 in 596 W/m2
09:50 67.4 °F 57.3 °F 29.80 in SW 3.0 mph 7.0 mph 70% 0.00 in 599 W/m2
09:56 67.6 °F 57.9 °F 29.80 in WSW 2.0 mph 7.0 mph 71% 0.00 in 610 W/m2
10:02 68.2 °F 57.6 °F 29.80 in WSW 2.0 mph 4.0 mph 69% 0.00 in 624 W/m2
10:08 68.6 °F 57.6 °F 29.80 in West 2.0 mph 4.0 mph 68% 0.00 in 640 W/m2
10:14 68.8 °F 57.4 °F 29.80 in SSE 2.0 mph 3.0 mph 67% 0.00 in 659 W/m2
10:20 69.4 °F 58.0 °F 29.80 in WSW 2.0 mph 4.0 mph 67% 0.00 in 689 W/m2
10:26 68.8 °F 57.8 °F 29.80 in WNW 2.0 mph 4.0 mph 68% 0.00 in 693 W/m2
10:32 68.9 °F 57.9 °F 29.80 in West 2.0 mph 6.0 mph 68% 0.00 in 735 W/m2
10:38 69.0 °F 56.3 °F 29.80 in NW 3.0 mph 6.0 mph 64% 0.00 in 768 W/m2
10:44 69.1 °F 57.3 °F 29.80 in West 2.0 mph 3.0 mph 66% 0.00 in 805 W/m2
10:50 69.9 °F 58.9 °F 29.80 in North 2.0 mph 2.0 mph 68% 0.00 in 812 W/m2
10:56 69.9 °F 58.4 °F 29.80 in NW 2.0 mph 3.0 mph 67% 0.00 in 278 W/m2
11:02 69.5 °F 57.6 °F 29.80 in WNW 1.0 mph 2.0 mph 66% 0.00 in 877 W/m2
11:08 69.6 °F 57.3 °F 29.80 in WNW 2.0 mph 4.0 mph 65% 0.00 in 860 W/m2
11:14 70.9 °F 60.6 °F 29.80 in SW 2.0 mph 6.0 mph 70% 0.00 in 981 W/m2
11:20 69.7 °F 55.6 °F 29.80 in WSW 4.0 mph 4.0 mph 61% 0.00 in 387 W/m2
11:28 70.5 °F 56.4 °F 29.80 in West 3.0 mph 5.0 mph 61% 0.00 in 573 W/m2
11:34 69.5 °F 56.3 °F 29.80 in WSW 2.0 mph 2.0 mph 63% 0.00 in 916 W/m2
11:40 71.4 °F 58.1 °F 29.80 in WSW 2.0 mph 3.0 mph 63% 0.00 in 937 W/m2
11:46 70.2 °F 56.1 °F 29.80 in WNW 2.0 mph 3.0 mph 61% 0.00 in 190 W/m2
11:52 69.3 °F 55.7 °F 29.80 in WNW 2.0 mph 5.0 mph 62% 0.00 in 146 W/m2
11:58 69.9 °F 56.3 °F 29.80 in SW 1.0 mph 5.0 mph 62% 0.00 in 160 W/m2
12:04 70.4 °F 54.9 °F 29.80 in WSW 2.0 mph 2.0 mph 58% 0.00 in 309 W/m2
12:10 70.1 °F 54.6 °F 29.80 in NW 3.0 mph 4.0 mph 58% 0.00 in 265 W/m2
12:16 70.4 °F 57.6 °F 29.80 in NNW 2.0 mph 4.0 mph 64% 0.00 in 318 W/m2
12:22 69.9 °F 54.9 °F 29.80 in NW 2.0 mph 2.0 mph 59% 0.00 in 244 W/m2
12:28 69.1 °F 55.5 °F 29.80 in NW 1.0 mph 2.0 mph 62% 0.00 in 216 W/m2
12:40 69.2 °F 56.9 °F 29.80 in North 2.0 mph 4.0 mph 65% 0.00 in 925 W/m2
12:46 71.5 °F 59.5 °F 29.80 in WSW 2.0 mph 5.0 mph 66% 0.00 in 1099 W/m2
12:52 70.5 °F 55.5 °F 29.80 in WSW 2.0 mph 2.0 mph 59% 0.00 in 345 W/m2
12:58 71.7 °F 56.1 °F 29.80 in NNW 2.0 mph 4.0 mph 58% 0.00 in 343 W/m2
13:04 71.5 °F 57.8 °F 29.80 in WSW 1.0 mph 2.0 mph 62% 0.00 in 272 W/m2
13:10 70.6 °F 54.6 °F 29.80 in SW 2.0 mph 2.0 mph 57% 0.00 in 186 W/m2
13:16 70.0 °F 55.5 °F 29.80 in NW 2.0 mph 3.0 mph 60% 0.00 in 1009 W/m2
13:22 71.9 °F 56.3 °F 29.80 in West 2.0 mph 2.0 mph 58% 0.00 in 1025 W/m2
13:28 72.3 °F 55.2 °F 29.80 in NW 2.0 mph 2.0 mph 55% 0.00 in 939 W/m2
13:34 72.2 °F 55.6 °F 29.80 in WNW 2.0 mph 2.0 mph 56% 0.00 in 960 W/m2
13:40 71.7 °F 56.1 °F 29.80 in NW 2.0 mph 2.0 mph 58% 0.00 in 898 W/m2
13:46 72.6 °F 54.0 °F 29.80 in SW 2.0 mph 2.0 mph 52% 0.00 in 912 W/m2
13:52 73.0 °F 54.9 °F 29.81 in North 2.0 mph 5.0 mph 53% 0.00 in 190 W/m2
13:58 70.8 °F 52.8 °F 29.81 in SW 2.0 mph 5.0 mph 53% 0.00 in 148 W/m2
14:04 71.0 °F 54.5 °F 29.81 in West 2.0 mph 2.0 mph 56% 0.00 in 933 W/m2
14:10 71.1 °F 56.0 °F 29.81 in NW 1.0 mph 2.0 mph 59% 0.00 in 202 W/m2
14:22 73.4 °F 55.7 °F 29.81 in WSW 2.0 mph 3.0 mph 54% 0.00 in 940 W/m2
14:28 74.0 °F 55.3 °F 29.81 in NNW 2.0 mph 4.0 mph 52% 0.00 in 900 W/m2
14:34 73.4 °F 55.2 °F 29.81 in NNE 2.0 mph 4.0 mph 53% 0.00 in 207 W/m2
14:40 72.2 °F 54.6 °F 29.81 in SW 3.0 mph 3.0 mph 54% 0.00 in 872 W/m2
14:46 72.6 °F 53.4 °F 29.81 in WSW 4.0 mph 4.0 mph 51% 0.00 in 362 W/m2
14:52 73.2 °F 52.9 °F 29.81 in SW 3.0 mph 5.0 mph 49% 0.00 in 895 W/m2
14:58 73.0 °F 53.8 °F 29.81 in SW 4.0 mph 8.0 mph 51% 0.00 in 886 W/m2
15:04 73.7 °F 54.4 °F 29.81 in SW 4.0 mph 11.0 mph 51% 0.00 in 870 W/m2
15:10 73.5 °F 53.7 °F 29.81 in WNW 4.0 mph 4.0 mph 50% 0.00 in 875 W/m2
15:16 73.9 °F 54.1 °F 29.81 in WSW 3.0 mph 4.0 mph 50% 0.00 in 172 W/m2
15:22 72.4 °F 53.8 °F 29.81 in WSW 1.0 mph 2.0 mph 52% 0.00 in 251 W/m2
15:28 73.2 °F 55.0 °F 29.80 in WNW 1.0 mph 2.0 mph 53% 0.00 in 754 W/m2
15:34 73.9 °F 54.1 °F 29.80 in WSW 2.0 mph 2.0 mph 50% 0.00 in 754 W/m2
15:40 74.5 °F 57.3 °F 29.80 in North 3.0 mph 3.0 mph 55% 0.00 in 726 W/m2
15:46 74.5 °F 56.2 °F 29.80 in SW 2.0 mph 3.0 mph 53% 0.00 in 696 W/m2
15:52 73.8 °F 52.9 °F 29.80 in SW 3.0 mph 5.0 mph 48% 0.00 in 705 W/m2
15:58 74.0 °F 52.5 °F 29.80 in West 2.0 mph 5.0 mph 47% 0.00 in 638 W/m2
16:04 73.8 °F 51.7 °F 29.80 in SSW 3.0 mph 6.0 mph 46% 0.00 in 626 W/m2
16:16 73.9 °F 52.4 °F 29.80 in NW 2.0 mph 3.0 mph 47% 0.00 in 582 W/m2
16:22 74.0 °F 51.9 °F 29.79 in SSW 3.0 mph 7.0 mph 46% 0.00 in 571 W/m2
16:28 73.9 °F 51.8 °F 29.79 in SW 4.0 mph 7.0 mph 46% 0.00 in 554 W/m2
16:34 74.2 °F 53.2 °F 29.80 in WSW 3.0 mph 4.0 mph 48% 0.00 in 531 W/m2
16:40 73.8 °F 51.7 °F 29.79 in NNW 2.0 mph 2.0 mph 46% 0.00 in 519 W/m2
16:46 74.0 °F 53.1 °F 29.79 in WSW 2.0 mph 7.0 mph 48% 0.00 in 501 W/m2
16:52 74.1 °F 53.2 °F 29.79 in WSW 3.0 mph 3.0 mph 48% 0.00 in 478 W/m2
16:58 73.6 °F 52.1 °F 29.79 in SW 3.0 mph 3.0 mph 47% 0.00 in 468 W/m2
17:04 73.6 °F 53.3 °F 29.79 in South 3.0 mph 5.0 mph 49% 0.00 in 438 W/m2
17:10 73.3 °F 51.3 °F 29.79 in SW 3.0 mph 3.0 mph 46% 0.00 in 95 W/m2
17:22 73.1 °F 52.2 °F 29.79 in SW 2.0 mph 3.0 mph 48% 0.00 in 114 W/m2
17:28 72.6 °F 51.8 °F 29.79 in SW 3.0 mph 4.0 mph 48% 0.00 in 142 W/m2
17:34 72.6 °F 52.3 °F 29.79 in SW 4.0 mph 5.0 mph 49% 0.00 in 264 W/m2
17:40 72.8 °F 52.5 °F 29.79 in WNW 3.0 mph 3.0 mph 49% 0.00 in 83 W/m2
17:46 72.4 °F 52.2 °F 29.79 in WSW 2.0 mph 4.0 mph 49% 0.00 in 123 W/m2
17:52 72.3 °F 53.7 °F 29.79 in WSW 1.0 mph 1.0 mph 52% 0.00 in 79 W/m2
17:58 72.1 °F 53.0 °F 29.79 in WSW 1.0 mph 1.0 mph 51% 0.00 in 76 W/m2
18:04 71.8 °F 51.0 °F 29.79 in SW 2.0 mph 3.0 mph 48% 0.00 in 63 W/m2
18:12 71.4 °F 52.3 °F 29.79 in SW 1.0 mph 4.0 mph 51% 0.00 in 58 W/m2
18:18 71.1 °F 52.6 °F 29.79 in SW 1.0 mph 4.0 mph 52% 0.00 in 69 W/m2
18:24 70.8 °F 52.8 °F 29.79 in NW 1.0 mph 2.0 mph 53% 0.00 in 72 W/m2
18:30 70.6 °F 52.1 °F 29.79 in SW 1.0 mph 3.0 mph 52% 0.00 in 65 W/m2
18:36 70.1 °F 52.7 °F 29.79 in WNW 1.0 mph 3.0 mph 54% 0.00 in 54 W/m2
18:48 69.5 °F 53.6 °F 29.79 in Calm   1.0 mph 57% 0.00 in 30 W/m2
18:54 69.2 °F 53.3 °F 29.79 in Calm     57% 0.00 in 19 W/m2
19:00 69.0 °F 53.6 °F 29.79 in Calm     58% 0.00 in 12 W/m2
19:06 68.8 °F 53.9 °F 29.79 in Calm     59% 0.00 in 11 W/m2
19:12 68.6 °F 53.7 °F 29.79 in Calm     59% 0.00 in 7 W/m2
19:24 68.3 °F 54.8 °F 29.80 in Calm     62% 0.00 in 7 W/m2
19:30 68.1 °F 54.1 °F 29.80 in Calm     61% 0.00 in 5 W/m2
19:36 68.1 °F 55.0 °F 29.81 in Calm   2.0 mph 63% 0.00 in 5 W/m2
19:42 67.9 °F 54.8 °F 29.81 in SW 2.0 mph 4.0 mph 63% 0.00 in 5 W/m2
19:48 67.8 °F 54.7 °F 29.82 in SW 3.0 mph 4.0 mph 63% 0.00 in 0 W/m2
19:54 67.3 °F 55.5 °F 29.82 in SW 4.0 mph 9.0 mph 66% 0.00 in 0 W/m2
20:00 66.2 °F 54.9 °F 29.83 in WSW 5.0 mph 5.0 mph 67% 0.00 in 0 W/m2
20:06 65.1 °F 54.7 °F 29.83 in SW 6.0 mph 6.0 mph 69% 0.00 in 0 W/m2
20:12 64.2 °F 54.6 °F 29.82 in WSW 3.0 mph 7.0 mph 71% 0.00 in 0 W/m2
20:18 63.3 °F 54.5 °F 29.82 in SW 3.0 mph 7.0 mph 73% 0.00 in 0 W/m2
20:24 62.8 °F 54.4 °F 29.82 in SW 2.0 mph 3.0 mph 74% 0.00 in 0 W/m2
20:30 62.6 °F 54.9 °F 29.82 in SW 2.0 mph 2.0 mph 76% 0.00 in 0 W/m2
20:36 62.4 °F 55.1 °F 29.82 in WSW 1.0 mph 2.0 mph 77% 0.00 in 0 W/m2
20:42 62.3 °F 55.4 °F 29.83 in WSW 1.0 mph 1.0 mph 78% 0.00 in 0 W/m2
20:48 62.2 °F 55.3 °F 29.83 in WSW 1.0 mph 2.0 mph 78% 0.00 in 0 W/m2
20:54 62.1 °F 55.5 °F 29.83 in WSW 1.0 mph 2.0 mph 79% 0.00 in 0 W/m2
21:00 61.9 °F 55.7 °F 29.83 in WSW 1.0 mph 1.0 mph 80% 0.00 in 0 W/m2
21:06 61.9 °F 56.0 °F 29.84 in WSW 1.0 mph 3.0 mph 81% 0.00 in 0 W/m2
21:12 61.8 °F 55.9 °F 29.84 in WSW 1.0 mph 1.0 mph 81% 0.00 in 0 W/m2
21:18 61.8 °F 55.9 °F 29.84 in WSW 1.0 mph 1.0 mph 81% 0.00 in 0 W/m2
21:24 61.8 °F 56.2 °F 29.84 in WSW 1.0 mph 1.0 mph 82% 0.00 in 0 W/m2
21:30 61.8 °F 56.2 °F 29.84 in Calm     82% 0.00 in 0 W/m2
21:36 61.7 °F 56.1 °F 29.84 in Calm     82% 0.00 in 0 W/m2
21:42 61.7 °F 56.1 °F 29.84 in Calm     82% 0.00 in 0 W/m2
21:48 61.6 °F 56.4 °F 29.84 in Calm     83% 0.00 in 0 W/m2
21:54 61.4 °F 55.9 °F 29.84 in Calm     82% 0.00 in 0 W/m2
22:00 61.3 °F 56.1 °F 29.84 in Calm     83% 0.00 in 0 W/m2
22:06 61.3 °F 56.1 °F 29.84 in Calm   1.0 mph 83% 0.00 in 0 W/m2
22:12 61.2 °F 56.0 °F 29.84 in Calm     83% 0.00 in 0 W/m2
22:18 61.1 °F 56.2 °F 29.84 in Calm     84% 0.00 in 0 W/m2
22:24 61.2 °F 56.3 °F 29.84 in Calm     84% 0.00 in 0 W/m2
22:32 61.1 °F 56.2 °F 29.84 in Calm   3.0 mph 84% 0.00 in 0 W/m2
22:38 61.1 °F 56.2 °F 29.84 in Calm   3.0 mph 84% 0.00 in 0 W/m2
22:44 61.0 °F 56.1 °F 29.84 in Calm     84% 0.00 in 0 W/m2
22:50 60.9 °F 56.4 °F 29.84 in Calm     85% 0.00 in 0 W/m2
22:56 60.8 °F 56.3 °F 29.84 in Calm   2.0 mph 85% 0.00 in 0 W/m2
23:02 60.7 °F 56.5 °F 29.85 in Calm     86% 0.00 in 0 W/m2
23:08 60.6 °F 56.4 °F 29.85 in Calm   2.0 mph 86% 0.00 in 0 W/m2
23:14 60.5 °F 56.3 °F 29.85 in Calm   2.0 mph 86% 0.00 in 0 W/m2
23:20 60.5 °F 56.6 °F 29.85 in Calm     87% 0.00 in 0 W/m2
23:26 60.4 °F 56.5 °F 29.85 in Calm     87% 0.00 in 0 W/m2
23:32 60.2 °F 56.3 °F 29.85 in Calm     87% 0.00 in 0 W/m2
23:38 60.0 °F 56.1 °F 29.85 in Calm     87% 0.00 in 0 W/m2
23:44 59.9 °F 56.3 °F 29.85 in Calm     88% 0.00 in 0 W/m2
23:56 59.9 °F 56.3 °F 29.85 in Calm     88% 0.00 in 0 W/m2
Country Meadow, Clay, NY, USA
Compliments of Weather Underground - 2 mb